Quito, Ecuador

3:03 PM ECT on August 30, 2015 (GMT -0500)
Yanahuaico | | Change Station
CLOSE
Current Station
Personal Weather Station
Location: Quito, PICHINCHA
Elevation: 8504 ft
Nearby Weather Stations

Elev 8504 ft 0.36 °S, 78.50 °W | Updated 2 minutes ago

Scattered Clouds
Scattered Clouds
71.7 °F
Feels Like 77 °F
N
3.0
Wind Variable Wind from South
Gusts 3.0 mph

Today
High -- | Low -- °F
--% Chance of Precip.
Yesterday
High -- | Low -- °F
Precip. -- in
6:11 AM 6:17 PM
Full, 98% visible
Pressure 30.39 in
Visibility 6.2 miles
Clouds Scattered Clouds 2600 ft
Scattered Clouds 10000 ft
Heat Index 77 °F
Dew Point 45 °F
Humidity 39%
Rainfall 0.00 in
Snow Depth Not available.
UV 8 out of 12
Pollen Not available.
Air Quality Not available.
Flu Activity Not available.
METAR SELT 302000Z 09009KT 9999 SCT026 SCT100 17/07 Q1029
Pressure 30.39 in
Visibility 6.2 miles
Clouds Scattered Clouds 2600 ft
Scattered Clouds 10000 ft
Heat Index 77 °F
Dew Point 45 °F
Humidity 39%
Rainfall 0.00 in
Snow Depth Not available.
UV 8 out of 12
Pollen Not available.
Air Quality Not available.
Flu Activity Not available.
METAR SELT 302000Z 09009KT 9999 SCT026 SCT100 17/07 Q1029

10-Day Weather Forecast

×

Almanac

Astronomy

Aug. 30, 2015 Rise Set
Actual Time
Civil Twilight
Nautical Twilight
Astronomical Twilight
Moon
Length of Visible Light
Length of Day
Tomorrow will be .
, % of the Moon is Illuminated

Today's Extremes

Country Highs Country Lows

Community

WunderPhotos

Upload Photos

1,851,048 photos uploaded!

WunderBlogs® & News

Nearby

Air Quality

  Air Quality AQ Index Pollutant
Not available.

Snow Depth

Station Depth Elevation

Earthquake Activity

City Distance Mag. Time & Date
Minimum magnitude displayed is 2.5.

Coastal Water Temperatures

Place Temperature

Stations

Nearby Weather Stations

Station Location Temp. Windchill Dew Point Humidity Wind Precip. Elev Updated Type